sensor_id;sensor_type;location;lat;lon;timestamp;pressure;altitude;pressure_sealevel;temperature;humidity
77975;BME280;67164;51.202;0.278;2023-08-24T00:00:32;101316.54;;;26.24;49.27
77975;BME280;67164;51.202;0.278;2023-08-24T00:02:58;101316.18;;;26.06;49.15
77975;BME280;67164;51.202;0.278;2023-08-24T00:05:24;101320.23;;;26.35;49.05
77975;BME280;67164;51.202;0.278;2023-08-24T00:07:49;101323.56;;;26.37;49.02
77975;BME280;67164;51.202;0.278;2023-08-24T00:10:15;101322.89;;;26.13;49.02
77975;BME280;67164;51.202;0.278;2023-08-24T00:12:41;101321.39;;;26.33;49.12
77975;BME280;67164;51.202;0.278;2023-08-24T00:15:09;101320.33;;;26.57;49.13
77975;BME280;67164;51.202;0.278;2023-08-24T00:17:32;101319.51;;;26.11;49.11
77975;BME280;67164;51.202;0.278;2023-08-24T00:19:58;101316.11;;;26.38;49.07
77975;BME280;67164;51.202;0.278;2023-08-24T00:22:24;101318.45;;;26.16;48.98
77975;BME280;67164;51.202;0.278;2023-08-24T00:24:49;101316.35;;;26.54;49.11
77975;BME280;67164;51.202;0.278;2023-08-24T00:27:15;101317.27;;;26.25;49.26
77975;BME280;67164;51.202;0.278;2023-08-24T00:29:41;101321.54;;;26.23;49.26
77975;BME280;67164;51.202;0.278;2023-08-24T00:32:07;101320.53;;;26.23;49.25
77975;BME280;67164;51.202;0.278;2023-08-24T00:34:33;101318.46;;;26.31;49.14
77975;BME280;67164;51.202;0.278;2023-08-24T00:36:58;101318.66;;;26.27;49.23
77975;BME280;67164;51.202;0.278;2023-08-24T00:39:24;101321.12;;;26.46;49.28
77975;BME280;67164;51.202;0.278;2023-08-24T00:41:50;101322.30;;;26.23;49.22
77975;BME280;67164;51.202;0.278;2023-08-24T00:44:16;101317.98;;;26.45;49.25
77975;BME280;67164;51.202;0.278;2023-08-24T00:46:41;101314.67;;;26.21;49.19
77975;BME280;67164;51.202;0.278;2023-08-24T00:49:07;101322.57;;;26.02;49.14
77975;BME280;67164;51.202;0.278;2023-08-24T00:51:34;101321.24;;;26.51;49.07
77975;BME280;67164;51.202;0.278;2023-08-24T00:53:59;101319.41;;;26.26;49.09
77975;BME280;67164;51.202;0.278;2023-08-24T00:56:25;101311.55;;;26.53;49.02
77975;BME280;67164;51.202;0.278;2023-08-24T00:58:51;101311.15;;;26.54;48.95
77975;BME280;67164;51.202;0.278;2023-08-24T01:01:17;101309.92;;;26.26;48.96
77975;BME280;67164;51.202;0.278;2023-08-24T01:03:42;101303.76;;;26.30;48.89
77975;BME280;67164;51.202;0.278;2023-08-24T01:06:08;101301.36;;;26.29;48.89
77975;BME280;67164;51.202;0.278;2023-08-24T01:08:33;101297.59;;;26.51;48.85
77975;BME280;67164;51.202;0.278;2023-08-24T01:11:04;101298.83;;;26.35;48.72
77975;BME280;67164;51.202;0.278;2023-08-24T01:13:30;101296.77;;;26.37;48.65
77975;BME280;67164;51.202;0.278;2023-08-24T01:15:55;101291.42;;;26.61;48.59
77975;BME280;67164;51.202;0.278;2023-08-24T01:18:16;101282.04;;;26.40;48.55
77975;BME280;67164;51.202;0.278;2023-08-24T01:20:42;101281.09;;;26.38;48.54
77975;BME280;67164;51.202;0.278;2023-08-24T01:23:17;101278.47;;;26.09;48.55
77975;BME280;67164;51.202;0.278;2023-08-24T01:25:38;101279.83;;;26.56;48.58
77975;BME280;67164;51.202;0.278;2023-08-24T01:27:59;101274.84;;;26.38;48.41
77975;BME280;67164;51.202;0.278;2023-08-24T01:30:24;101271.74;;;26.36;48.41
77975;BME280;67164;51.202;0.278;2023-08-24T01:32:50;101269.95;;;26.58;48.45
77975;BME280;67164;51.202;0.278;2023-08-24T01:35:15;101271.86;;;26.51;48.52
77975;BME280;67164;51.202;0.278;2023-08-24T01:37:41;101273.50;;;26.56;48.38
77975;BME280;67164;51.202;0.278;2023-08-24T01:40:13;101274.03;;;26.31;48.34
77975;BME280;67164;51.202;0.278;2023-08-24T01:42:35;101276.01;;;26.61;48.28
77975;BME280;67164;51.202;0.278;2023-08-24T01:45:02;101272.65;;;26.35;48.26
77975;BME280;67164;51.202;0.278;2023-08-24T01:47:25;101267.37;;;26.38;48.12
77975;BME280;67164;51.202;0.278;2023-08-24T01:49:50;101261.35;;;26.38;48.14
77975;BME280;67164;51.202;0.278;2023-08-24T01:52:16;101260.48;;;26.63;48.07
77975;BME280;67164;51.202;0.278;2023-08-24T01:54:42;101254.67;;;26.34;48.09
77975;BME280;67164;51.202;0.278;2023-08-24T01:57:07;101249.99;;;26.55;48.17
77975;BME280;67164;51.202;0.278;2023-08-24T01:59:33;101241.47;;;26.35;48.05
77975;BME280;67164;51.202;0.278;2023-08-24T02:01:59;101236.83;;;26.35;48.02
77975;BME280;67164;51.202;0.278;2023-08-24T02:04:24;101227.83;;;26.57;48.05
77975;BME280;67164;51.202;0.278;2023-08-24T02:06:50;101220.79;;;26.32;47.95
77975;BME280;67164;51.202;0.278;2023-08-24T02:09:16;101215.83;;;26.57;47.93
77975;BME280;67164;51.202;0.278;2023-08-24T02:11:42;101200.43;;;26.58;47.96
77975;BME280;67164;51.202;0.278;2023-08-24T02:14:07;101186.97;;;26.61;47.85
77975;BME280;67164;51.202;0.278;2023-08-24T02:16:33;101174.99;;;26.66;47.69
77975;BME280;67164;51.202;0.278;2023-08-24T02:18:59;101171.32;;;26.45;47.64
77975;BME280;67164;51.202;0.278;2023-08-24T02:21:25;101171.47;;;26.72;47.59
77975;BME280;67164;51.202;0.278;2023-08-24T02:23:51;101164.17;;;26.67;47.61
77975;BME280;67164;51.202;0.278;2023-08-24T02:26:16;101150.37;;;26.42;47.50
77975;BME280;67164;51.202;0.278;2023-08-24T02:28:42;101134.16;;;26.60;47.58
77975;BME280;67164;51.202;0.278;2023-08-24T02:31:08;101129.80;;;26.54;47.34
77975;BME280;67164;51.202;0.278;2023-08-24T02:33:35;101134.19;;;26.36;47.47
77975;BME280;67164;51.202;0.278;2023-08-24T02:36:00;101139.11;;;26.59;47.36
77975;BME280;67164;51.202;0.278;2023-08-24T02:38:25;101150.47;;;26.57;47.50
77975;BME280;67164;51.202;0.278;2023-08-24T02:41:01;101151.40;;;26.55;47.60
77975;BME280;67164;51.202;0.278;2023-08-24T02:43:17;101144.71;;;26.33;47.43
77975;BME280;67164;51.202;0.278;2023-08-24T02:45:42;101135.72;;;26.60;47.35
77975;BME280;67164;51.202;0.278;2023-08-24T02:48:08;101124.51;;;26.59;47.24
77975;BME280;67164;51.202;0.278;2023-08-24T02:50:34;101108.79;;;26.53;47.45
77975;BME280;67164;51.202;0.278;2023-08-24T02:52:59;101100.24;;;26.54;47.15
77975;BME280;67164;51.202;0.278;2023-08-24T02:55:25;101101.41;;;26.35;47.42
77975;BME280;67164;51.202;0.278;2023-08-24T02:57:51;101096.03;;;26.63;46.95
77975;BME280;67164;51.202;0.278;2023-08-24T03:00:17;101100.54;;;26.35;47.16
77975;BME280;67164;51.202;0.278;2023-08-24T03:02:43;101099.29;;;26.58;47.13
77975;BME280;67164;51.202;0.278;2023-08-24T03:05:09;101107.14;;;26.58;46.89
77975;BME280;67164;51.202;0.278;2023-08-24T03:07:34;101110.17;;;26.61;47.06
77975;BME280;67164;51.202;0.278;2023-08-24T03:10:00;101108.35;;;26.36;47.00
77975;BME280;67164;51.202;0.278;2023-08-24T03:12:26;101107.24;;;26.60;47.02
77975;BME280;67164;51.202;0.278;2023-08-24T03:14:51;101101.64;;;26.61;46.90
77975;BME280;67164;51.202;0.278;2023-08-24T03:17:17;101104.57;;;26.60;46.93
77975;BME280;67164;51.202;0.278;2023-08-24T03:19:43;101096.82;;;26.57;46.76
77975;BME280;67164;51.202;0.278;2023-08-24T03:22:09;101105.99;;;26.56;46.92
77975;BME280;67164;51.202;0.278;2023-08-24T03:24:34;101106.16;;;26.33;46.84
77975;BME280;67164;51.202;0.278;2023-08-24T03:27:00;101098.52;;;26.58;46.63
77975;BME280;67164;51.202;0.278;2023-08-24T03:29:26;101096.53;;;26.60;46.79
77975;BME280;67164;51.202;0.278;2023-08-24T03:31:52;101086.86;;;26.58;46.60
77975;BME280;67164;51.202;0.278;2023-08-24T03:34:17;101078.35;;;26.55;46.62
77975;BME280;67164;51.202;0.278;2023-08-24T03:36:43;101081.58;;;26.54;46.65
77975;BME280;67164;51.202;0.278;2023-08-24T03:39:09;101077.61;;;26.30;46.58
77975;BME280;67164;51.202;0.278;2023-08-24T03:41:35;101073.66;;;26.53;46.51
77975;BME280;67164;51.202;0.278;2023-08-24T03:44:00;101069.36;;;26.49;46.55
77975;BME280;67164;51.202;0.278;2023-08-24T03:46:26;101073.13;;;26.51;46.58
77975;BME280;67164;51.202;0.278;2023-08-24T03:48:52;101071.83;;;26.24;46.57
77975;BME280;67164;51.202;0.278;2023-08-24T03:51:18;101071.31;;;26.48;46.56
77975;BME280;67164;51.202;0.278;2023-08-24T03:53:44;101071.84;;;26.50;46.50
77975;BME280;67164;51.202;0.278;2023-08-24T03:56:09;101067.00;;;26.42;46.73
77975;BME280;67164;51.202;0.278;2023-08-24T03:58:35;101066.80;;;26.49;46.51
77975;BME280;67164;51.202;0.278;2023-08-24T04:01:01;101066.68;;;26.22;46.49
77975;BME280;67164;51.202;0.278;2023-08-24T04:03:27;101073.21;;;26.47;46.49
77975;BME280;67164;51.202;0.278;2023-08-24T04:05:52;101069.30;;;26.70;46.44
77975;BME280;67164;51.202;0.278;2023-08-24T04:08:18;101063.05;;;26.71;46.42
77975;BME280;67164;51.202;0.278;2023-08-24T04:10:44;101059.66;;;26.31;46.60
77975;BME280;67164;51.202;0.278;2023-08-24T04:13:10;101063.10;;;26.20;46.53
77975;BME280;67164;51.202;0.278;2023-08-24T04:15:36;101063.36;;;26.24;46.61
77975;BME280;67164;51.202;0.278;2023-08-24T04:18:01;101056.35;;;26.26;46.41
77975;BME280;67164;51.202;0.278;2023-08-24T04:20:27;101055.47;;;26.28;46.44
77975;BME280;67164;51.202;0.278;2023-08-24T04:22:53;101060.29;;;26.31;46.46
77975;BME280;67164;51.202;0.278;2023-08-24T04:25:18;101069.05;;;26.20;46.46
77975;BME280;67164;51.202;0.278;2023-08-24T04:27:44;101064.85;;;26.42;46.51
77975;BME280;67164;51.202;0.278;2023-08-24T04:30:10;101051.65;;;26.19;46.24
77975;BME280;67164;51.202;0.278;2023-08-24T04:32:36;101051.28;;;26.36;46.25
77975;BME280;67164;51.202;0.278;2023-08-24T04:35:01;101057.39;;;26.41;46.35
77975;BME280;67164;51.202;0.278;2023-08-24T04:37:27;101058.97;;;26.44;46.39
77975;BME280;67164;51.202;0.278;2023-08-24T04:39:53;101061.40;;;26.45;46.14
77975;BME280;67164;51.202;0.278;2023-08-24T04:42:19;101071.23;;;25.93;46.17
77975;BME280;67164;51.202;0.278;2023-08-24T04:44:44;101061.09;;;26.37;46.41
77975;BME280;67164;51.202;0.278;2023-08-24T04:47:10;101043.92;;;26.28;46.26
77975;BME280;67164;51.202;0.278;2023-08-24T04:49:36;101029.42;;;26.36;46.14
77975;BME280;67164;51.202;0.278;2023-08-24T04:52:02;101021.81;;;26.19;46.25
77975;BME280;67164;51.202;0.278;2023-08-24T04:54:27;101022.02;;;26.30;46.10
77975;BME280;67164;51.202;0.278;2023-08-24T04:56:52;101015.85;;;26.21;46.26
77975;BME280;67164;51.202;0.278;2023-08-24T04:59:18;101022.06;;;26.16;46.34
77975;BME280;67164;51.202;0.278;2023-08-24T05:01:44;101026.23;;;26.09;46.29
77975;BME280;67164;51.202;0.278;2023-08-24T05:04:11;101042.13;;;25.94;46.34
77975;BME280;67164;51.202;0.278;2023-08-24T05:06:35;101043.32;;;26.00;46.15
77975;BME280;67164;51.202;0.278;2023-08-24T05:09:01;101039.16;;;26.14;46.27
77975;BME280;67164;51.202;0.278;2023-08-24T05:11:28;101023.37;;;26.32;46.00
77975;BME280;67164;51.202;0.278;2023-08-24T05:13:53;101023.95;;;26.30;45.91
77975;BME280;67164;51.202;0.278;2023-08-24T05:16:18;101033.65;;;25.91;46.04
77975;BME280;67164;51.202;0.278;2023-08-24T05:18:44;101023.71;;;26.19;46.26
77975;BME280;67164;51.202;0.278;2023-08-24T05:21:10;100994.45;;;26.19;46.38
77975;BME280;67164;51.202;0.278;2023-08-24T05:23:36;101002.76;;;26.18;46.36
77975;BME280;67164;51.202;0.278;2023-08-24T05:26:02;101039.40;;;26.10;46.25
77975;BME280;67164;51.202;0.278;2023-08-24T05:28:28;101052.49;;;26.25;46.18
77975;BME280;67164;51.202;0.278;2023-08-24T05:30:53;101054.77;;;26.13;46.51
77975;BME280;67164;51.202;0.278;2023-08-24T05:33:20;101052.93;;;26.02;46.64
77975;BME280;67164;51.202;0.278;2023-08-24T05:35:44;101046.76;;;26.04;46.29
77975;BME280;67164;51.202;0.278;2023-08-24T05:38:10;101036.91;;;25.89;46.33
77975;BME280;67164;51.202;0.278;2023-08-24T05:40:36;101039.70;;;26.04;46.24
77975;BME280;67164;51.202;0.278;2023-08-24T05:43:02;101065.93;;;25.72;46.34
77975;BME280;67164;51.202;0.278;2023-08-24T05:45:27;101083.80;;;25.99;46.55
77975;BME280;67164;51.202;0.278;2023-08-24T05:47:53;101087.72;;;25.92;46.61
77975;BME280;67164;51.202;0.278;2023-08-24T05:50:18;101073.93;;;26.13;46.54
77975;BME280;67164;51.202;0.278;2023-08-24T05:52:44;101046.24;;;26.07;46.48
77975;BME280;67164;51.202;0.278;2023-08-24T05:55:10;101027.19;;;25.72;46.48
77975;BME280;67164;51.202;0.278;2023-08-24T05:57:35;101009.34;;;25.99;46.74
77975;BME280;67164;51.202;0.278;2023-08-24T06:00:01;101003.52;;;26.06;46.50
77975;BME280;67164;51.202;0.278;2023-08-24T06:02:27;101012.03;;;25.93;46.78
77975;BME280;67164;51.202;0.278;2023-08-24T06:04:53;101024.28;;;26.09;46.60
77975;BME280;67164;51.202;0.278;2023-08-24T06:07:18;101040.16;;;26.10;46.41
77975;BME280;67164;51.202;0.278;2023-08-24T06:09:44;101067.27;;;26.14;46.51
77975;BME280;67164;51.202;0.278;2023-08-24T06:12:10;101073.16;;;26.15;46.27
77975;BME280;67164;51.202;0.278;2023-08-24T06:14:36;101069.60;;;26.00;46.33
77975;BME280;67164;51.202;0.278;2023-08-24T06:17:02;101075.09;;;25.92;46.31
77975;BME280;67164;51.202;0.278;2023-08-24T06:19:27;101067.81;;;25.88;46.32
77975;BME280;67164;51.202;0.278;2023-08-24T06:21:53;101065.58;;;25.78;46.38
77975;BME280;67164;51.202;0.278;2023-08-24T06:24:19;101067.43;;;25.81;46.58
77975;BME280;67164;51.202;0.278;2023-08-24T06:26:45;101076.76;;;25.80;46.75
77975;BME280;67164;51.202;0.278;2023-08-24T06:29:10;101082.51;;;25.90;46.60
77975;BME280;67164;51.202;0.278;2023-08-24T06:31:36;101083.32;;;26.05;46.39
77975;BME280;67164;51.202;0.278;2023-08-24T06:34:02;101087.75;;;26.07;46.51
77975;BME280;67164;51.202;0.278;2023-08-24T06:36:28;101080.27;;;25.86;46.66
77975;BME280;67164;51.202;0.278;2023-08-24T06:38:54;101084.14;;;25.90;46.65
77975;BME280;67164;51.202;0.278;2023-08-24T06:41:20;101088.17;;;25.67;46.89
77975;BME280;67164;51.202;0.278;2023-08-24T06:43:45;101084.89;;;25.97;46.60
77975;BME280;67164;51.202;0.278;2023-08-24T06:46:11;101078.65;;;25.92;46.45
77975;BME280;67164;51.202;0.278;2023-08-24T06:48:37;101077.25;;;25.86;46.61
77975;BME280;67164;51.202;0.278;2023-08-24T06:51:03;101083.16;;;25.77;46.76
77975;BME280;67164;51.202;0.278;2023-08-24T06:53:28;101088.71;;;26.08;46.50
77975;BME280;67164;51.202;0.278;2023-08-24T06:55:55;101088.76;;;26.44;46.28
77975;BME280;67164;51.202;0.278;2023-08-24T06:58:20;101075.85;;;26.09;46.44
77975;BME280;67164;51.202;0.278;2023-08-24T07:00:46;101061.38;;;25.92;46.65
77975;BME280;67164;51.202;0.278;2023-08-24T07:03:11;101050.12;;;25.80;46.81
77975;BME280;67164;51.202;0.278;2023-08-24T07:05:37;101041.51;;;26.04;46.41
77975;BME280;67164;51.202;0.278;2023-08-24T07:08:03;101040.41;;;25.67;47.04
77975;BME280;67164;51.202;0.278;2023-08-24T07:10:28;101037.90;;;26.01;46.52
77975;BME280;67164;51.202;0.278;2023-08-24T07:12:55;101029.39;;;25.72;46.91
77975;BME280;67164;51.202;0.278;2023-08-24T07:15:20;101024.18;;;25.87;46.71
77975;BME280;67164;51.202;0.278;2023-08-24T07:17:46;101018.67;;;25.85;46.69
77975;BME280;67164;51.202;0.278;2023-08-24T07:20:12;101022.86;;;25.53;46.90
77975;BME280;67164;51.202;0.278;2023-08-24T07:22:37;101027.09;;;26.07;46.87
77975;BME280;67164;51.202;0.278;2023-08-24T07:25:05;101021.12;;;26.05;46.51
77975;BME280;67164;51.202;0.278;2023-08-24T07:27:29;101011.98;;;26.11;46.43
77975;BME280;67164;51.202;0.278;2023-08-24T07:29:55;101015.66;;;26.33;46.67
77975;BME280;67164;51.202;0.278;2023-08-24T07:32:21;101010.00;;;26.01;46.91
77975;BME280;67164;51.202;0.278;2023-08-24T07:34:47;101018.76;;;25.78;47.30
77975;BME280;67164;51.202;0.278;2023-08-24T07:37:12;101012.28;;;26.06;47.09
77975;BME280;67164;51.202;0.278;2023-08-24T07:39:38;101007.14;;;26.13;47.08
77975;BME280;67164;51.202;0.278;2023-08-24T07:42:04;101005.66;;;26.18;47.09
77975;BME280;67164;51.202;0.278;2023-08-24T07:44:29;101012.08;;;26.21;47.13
77975;BME280;67164;51.202;0.278;2023-08-24T07:46:56;101008.88;;;26.23;47.11
77975;BME280;67164;51.202;0.278;2023-08-24T07:49:21;101003.89;;;26.15;47.21
77975;BME280;67164;51.202;0.278;2023-08-24T07:51:47;101004.82;;;26.13;47.70
77975;BME280;67164;51.202;0.278;2023-08-24T07:54:13;101003.36;;;25.95;47.55
77975;BME280;67164;51.202;0.278;2023-08-24T07:56:38;100997.26;;;25.87;47.83
77975;BME280;67164;51.202;0.278;2023-08-24T07:59:04;100985.57;;;26.15;47.35
77975;BME280;67164;51.202;0.278;2023-08-24T08:01:30;100973.70;;;25.90;47.38
77975;BME280;67164;51.202;0.278;2023-08-24T08:03:56;100960.85;;;26.21;47.28
77975;BME280;67164;51.202;0.278;2023-08-24T08:06:22;100957.31;;;25.87;47.75
77975;BME280;67164;51.202;0.278;2023-08-24T08:08:47;100955.65;;;25.96;47.73
77975;BME280;67164;51.202;0.278;2023-08-24T08:11:13;100946.13;;;25.88;47.93
77975;BME280;67164;51.202;0.278;2023-08-24T08:13:39;100931.45;;;25.91;47.98
77975;BME280;67164;51.202;0.278;2023-08-24T08:16:05;100917.63;;;25.94;48.09
77975;BME280;67164;51.202;0.278;2023-08-24T08:18:31;100909.81;;;25.96;48.09
77975;BME280;67164;51.202;0.278;2023-08-24T08:20:56;100907.70;;;25.89;48.23
77975;BME280;67164;51.202;0.278;2023-08-24T08:23:22;100917.27;;;25.67;48.25
77975;BME280;67164;51.202;0.278;2023-08-24T08:25:47;100922.52;;;25.94;48.38
77975;BME280;67164;51.202;0.278;2023-08-24T08:28:13;100929.25;;;25.91;48.59
77975;BME280;67164;51.202;0.278;2023-08-24T08:30:39;100925.15;;;25.74;49.01
77975;BME280;67164;51.202;0.278;2023-08-24T08:33:05;100927.51;;;25.97;48.69
77975;BME280;67164;51.202;0.278;2023-08-24T08:35:31;100928.05;;;26.00;48.68
77975;BME280;67164;51.202;0.278;2023-08-24T08:37:57;100931.25;;;25.99;48.97
77975;BME280;67164;51.202;0.278;2023-08-24T08:40:25;100935.50;;;25.88;49.22
77975;BME280;67164;51.202;0.278;2023-08-24T08:42:48;100937.16;;;25.86;49.22
77975;BME280;67164;51.202;0.278;2023-08-24T08:45:14;100934.91;;;26.04;49.18
77975;BME280;67164;51.202;0.278;2023-08-24T08:47:39;100937.96;;;25.89;49.12
77975;BME280;67164;51.202;0.278;2023-08-24T08:50:06;100939.12;;;26.15;49.28
77975;BME280;67164;51.202;0.278;2023-08-24T08:52:31;100934.00;;;26.22;49.45
77975;BME280;67164;51.202;0.278;2023-08-24T08:54:57;100922.52;;;26.20;49.71
77975;BME280;67164;51.202;0.278;2023-08-24T08:57:23;100915.63;;;26.13;50.04
77975;BME280;67164;51.202;0.278;2023-08-24T08:59:49;100926.39;;;26.25;49.98
77975;BME280;67164;51.202;0.278;2023-08-24T09:02:16;100944.45;;;26.27;50.11
77975;BME280;67164;51.202;0.278;2023-08-24T09:04:39;100949.82;;;26.15;50.32
77975;BME280;67164;51.202;0.278;2023-08-24T09:07:05;100948.54;;;26.23;50.27
77975;BME280;67164;51.202;0.278;2023-08-24T09:09:31;100953.33;;;26.24;50.36
77975;BME280;67164;51.202;0.278;2023-08-24T09:11:57;100947.48;;;26.05;50.28
77975;BME280;67164;51.202;0.278;2023-08-24T09:14:22;100951.16;;;26.30;50.23
77975;BME280;67164;51.202;0.278;2023-08-24T09:16:48;100954.21;;;26.27;50.31
77975;BME280;67164;51.202;0.278;2023-08-24T09:19:14;100955.01;;;25.94;50.55
77975;BME280;67164;51.202;0.278;2023-08-24T09:21:40;100939.54;;;26.37;50.73
77975;BME280;67164;51.202;0.278;2023-08-24T09:24:06;100940.03;;;25.88;50.73
77975;BME280;67164;51.202;0.278;2023-08-24T09:26:37;100931.83;;;25.63;51.16
77975;BME280;67164;51.202;0.278;2023-08-24T09:28:57;100944.54;;;26.22;50.88
77975;BME280;67164;51.202;0.278;2023-08-24T09:31:23;100951.54;;;26.23;50.52
77975;BME280;67164;51.202;0.278;2023-08-24T09:33:48;100942.81;;;26.34;50.30
77975;BME280;67164;51.202;0.278;2023-08-24T09:36:14;100919.94;;;26.36;50.24
77975;BME280;67164;51.202;0.278;2023-08-24T09:38:46;100898.94;;;26.32;50.42
77975;BME280;67164;51.202;0.278;2023-08-24T09:41:05;100874.40;;;26.20;50.74
77975;BME280;67164;51.202;0.278;2023-08-24T09:43:31;100878.45;;;25.99;51.17
77975;BME280;67164;51.202;0.278;2023-08-24T09:45:57;100880.40;;;26.35;50.60
77975;BME280;67164;51.202;0.278;2023-08-24T09:48:23;100881.86;;;26.37;50.64
77975;BME280;67164;51.202;0.278;2023-08-24T09:50:51;100864.74;;;26.59;50.56
77975;BME280;67164;51.202;0.278;2023-08-24T09:53:16;100846.33;;;26.00;50.96
77975;BME280;67164;51.202;0.278;2023-08-24T09:55:41;100836.76;;;26.37;50.66
77975;BME280;67164;51.202;0.278;2023-08-24T09:58:07;100850.69;;;26.39;50.67
77975;BME280;67164;51.202;0.278;2023-08-24T10:00:31;100863.66;;;26.45;50.64
77975;BME280;67164;51.202;0.278;2023-08-24T10:02:57;100866.18;;;26.41;50.80
77975;BME280;67164;51.202;0.278;2023-08-24T10:05:23;100868.21;;;26.21;50.76
77975;BME280;67164;51.202;0.278;2023-08-24T10:07:49;100861.68;;;26.53;50.53
77975;BME280;67164;51.202;0.278;2023-08-24T10:10:12;100854.80;;;26.20;50.59
77975;BME280;67164;51.202;0.278;2023-08-24T10:12:44;100852.31;;;26.20;50.57
77975;BME280;67164;51.202;0.278;2023-08-24T10:15:03;100848.97;;;26.50;50.45
77975;BME280;67164;51.202;0.278;2023-08-24T10:17:29;100849.69;;;26.06;50.80
77975;BME280;67164;51.202;0.278;2023-08-24T10:19:54;100857.35;;;26.36;50.73
77975;BME280;67164;51.202;0.278;2023-08-24T10:22:20;100864.88;;;26.53;50.47
77975;BME280;67164;51.202;0.278;2023-08-24T10:24:45;100855.37;;;26.10;50.76
77975;BME280;67164;51.202;0.278;2023-08-24T10:27:10;100847.85;;;26.47;50.52
77975;BME280;67164;51.202;0.278;2023-08-24T10:29:35;100853.04;;;26.30;50.27
77975;BME280;67164;51.202;0.278;2023-08-24T10:32:01;100860.30;;;26.15;50.41
77975;BME280;67164;51.202;0.278;2023-08-24T10:34:27;100863.48;;;26.37;50.50
77975;BME280;67164;51.202;0.278;2023-08-24T10:36:51;100862.37;;;26.19;50.42
77975;BME280;67164;51.202;0.278;2023-08-24T10:39:18;100863.58;;;26.41;50.48
77975;BME280;67164;51.202;0.278;2023-08-24T10:41:49;100866.57;;;26.40;50.59
77975;BME280;67164;51.202;0.278;2023-08-24T10:46:35;100866.55;;;26.46;50.65
77975;BME280;67164;51.202;0.278;2023-08-24T10:48:59;100865.17;;;25.92;50.81
77975;BME280;67164;51.202;0.278;2023-08-24T10:51:24;100863.46;;;26.42;50.91
77975;BME280;67164;51.202;0.278;2023-08-24T10:53:52;100859.31;;;26.13;51.14
77975;BME280;67164;51.202;0.278;2023-08-24T10:56:17;100859.27;;;26.20;51.34
77975;BME280;67164;51.202;0.278;2023-08-24T10:58:41;100863.90;;;26.38;51.58
77975;BME280;67164;51.202;0.278;2023-08-24T11:01:07;100866.85;;;26.52;51.58
77975;BME280;67164;51.202;0.278;2023-08-24T11:03:32;100862.98;;;26.27;51.89
77975;BME280;67164;51.202;0.278;2023-08-24T11:05:57;100864.01;;;25.92;52.42
77975;BME280;67164;51.202;0.278;2023-08-24T11:10:48;100880.97;;;26.46;51.77
77975;BME280;67164;51.202;0.278;2023-08-24T11:13:15;100878.97;;;26.16;51.80
77975;BME280;67164;51.202;0.278;2023-08-24T11:15:41;100874.89;;;26.28;51.55
77975;BME280;67164;51.202;0.278;2023-08-24T11:18:15;100872.37;;;26.36;51.81
77975;BME280;67164;51.202;0.278;2023-08-24T11:20:30;100874.35;;;26.32;51.60
77975;BME280;67164;51.202;0.278;2023-08-24T11:22:56;100878.39;;;26.47;51.86
77975;BME280;67164;51.202;0.278;2023-08-24T11:25:20;100876.87;;;26.45;52.01
77975;BME280;67164;51.202;0.278;2023-08-24T11:27:46;100873.38;;;26.28;52.26
77975;BME280;67164;51.202;0.278;2023-08-24T11:30:11;100867.62;;;26.28;52.29
77975;BME280;67164;51.202;0.278;2023-08-24T11:32:37;100865.62;;;26.09;52.21
77975;BME280;67164;51.202;0.278;2023-08-24T11:35:03;100870.29;;;25.87;52.63
77975;BME280;67164;51.202;0.278;2023-08-24T11:37:28;100869.15;;;26.36;52.25
77975;BME280;67164;51.202;0.278;2023-08-24T11:39:53;100860.40;;;26.28;52.41
77975;BME280;67164;51.202;0.278;2023-08-24T11:42:18;100860.22;;;26.26;52.10
77975;BME280;67164;51.202;0.278;2023-08-24T11:44:45;100867.54;;;26.42;52.57
77975;BME280;67164;51.202;0.278;2023-08-24T11:47:10;100865.01;;;26.24;53.25
77975;BME280;67164;51.202;0.278;2023-08-24T11:49:34;100867.32;;;26.25;53.10
77975;BME280;67164;51.202;0.278;2023-08-24T11:52:00;100864.83;;;26.24;52.58
77975;BME280;67164;51.202;0.278;2023-08-24T11:54:25;100866.28;;;26.22;52.44
77975;BME280;67164;51.202;0.278;2023-08-24T11:56:51;100866.50;;;26.27;52.30
77975;BME280;67164;51.202;0.278;2023-08-24T11:59:17;100858.34;;;26.13;51.95
77975;BME280;67164;51.202;0.278;2023-08-24T12:01:41;100848.72;;;26.63;51.79
77975;BME280;67164;51.202;0.278;2023-08-24T12:04:07;100842.85;;;26.42;51.65
77975;BME280;67164;51.202;0.278;2023-08-24T12:06:33;100837.15;;;26.26;51.87
77975;BME280;67164;51.202;0.278;2023-08-24T12:08:59;100830.91;;;26.39;51.57
77975;BME280;67164;51.202;0.278;2023-08-24T12:11:24;100833.12;;;26.45;51.36
77975;BME280;67164;51.202;0.278;2023-08-24T12:13:51;100833.82;;;26.48;51.41
77975;BME280;67164;51.202;0.278;2023-08-24T12:16:16;100822.70;;;26.35;51.63
77975;BME280;67164;51.202;0.278;2023-08-24T12:18:49;100813.04;;;26.29;51.57
77975;BME280;67164;51.202;0.278;2023-08-24T12:21:11;100807.93;;;26.25;51.57
77975;BME280;67164;51.202;0.278;2023-08-24T12:23:31;100806.17;;;26.29;51.39
77975;BME280;67164;51.202;0.278;2023-08-24T12:25:57;100807.08;;;26.43;51.49
77975;BME280;67164;51.202;0.278;2023-08-24T12:28:22;100810.32;;;26.23;51.39
77975;BME280;67164;51.202;0.278;2023-08-24T12:30:48;100805.38;;;26.38;51.47
77975;BME280;67164;51.202;0.278;2023-08-24T12:33:22;100801.40;;;26.33;51.48
77975;BME280;67164;51.202;0.278;2023-08-24T12:35:38;100806.83;;;26.09;51.48
77975;BME280;67164;51.202;0.278;2023-08-24T12:38:03;100805.53;;;25.86;51.44
77975;BME280;67164;51.202;0.278;2023-08-24T12:40:29;100795.78;;;26.30;51.39
77975;BME280;67164;51.202;0.278;2023-08-24T12:42:55;100791.35;;;26.15;51.25
77975;BME280;67164;51.202;0.278;2023-08-24T12:45:20;100799.16;;;26.15;51.24